Parthenon, Arkansas
Current Conditions -  °F | °C
As of 9:53 AM on Friday 31 Oct 2014 (Local Time) from KHRO Reporting Station
Overcast Overcast  
Wind Chill: 45°   Ceiling: 2200
Heat Index: 49°   Visibility: 10mi
Dew Point: 40°   Wind: 10mph
Humidity: 71%   Direction: 340°NNW
Pressure: 30.28"   Gusts: 21mph
Location:  35.95°N, 93.24°W
Report Text: KHRO 311453Z AUTO 34009G18KT 10SM OVC022 09/04 A3028 RMK AO2 SLP253 T00940044 53025
Loading
Personal Weather Stations






























Interactive Weather Map
Tropical Storm Tracking
New forecast layout! Learn more

10-Day Weather Forecast

Advertisements
Track Severe Weather on mobile